createdAt,value
2018-02-12T00:00:05.878Z,15.10
2018-02-12T00:02:34.175Z,16.60
2018-02-12T00:05:02.357Z,16.52
2018-02-12T00:07:30.718Z,19.73
2018-02-12T00:09:58.995Z,16.62
2018-02-12T00:12:27.556Z,17.87
2018-02-12T00:14:56.299Z,17.67
2018-02-12T00:17:24.554Z,16.55
2018-02-12T00:19:52.815Z,16.85
2018-02-12T00:22:21.398Z,18.00
2018-02-12T00:24:49.795Z,17.92
2018-02-12T00:27:18.267Z,18.12
2018-02-12T00:29:46.588Z,17.98
2018-02-12T00:32:14.769Z,17.80
2018-02-12T00:34:42.958Z,18.92
2018-02-12T00:37:11.477Z,17.77
2018-02-12T00:39:39.753Z,17.83
2018-02-12T00:42:08.024Z,18.02
2018-02-12T00:44:36.139Z,16.37
2018-02-12T00:47:04.443Z,15.40
2018-02-12T00:49:32.697Z,16.25
2018-02-12T00:52:01.002Z,17.23
2018-02-12T00:54:29.442Z,14.20
2018-02-12T00:56:57.778Z,14.63
2018-02-12T00:59:25.934Z,15.43
2018-02-12T01:01:54.334Z,15.32
2018-02-12T01:04:22.620Z,15.82
2018-02-12T01:06:50.806Z,15.93
2018-02-12T01:09:19.017Z,15.90
2018-02-12T01:11:47.414Z,17.02
2018-02-12T01:14:15.641Z,15.68
2018-02-12T01:16:43.957Z,15.80
2018-02-12T01:19:12.203Z,17.00
2018-02-12T01:21:40.498Z,16.30
2018-02-12T01:24:08.662Z,16.42
2018-02-12T01:26:37.079Z,16.05
2018-02-12T01:29:05.107Z,16.55
2018-02-12T01:31:33.475Z,17.27
2018-02-12T01:34:01.719Z,17.33
2018-02-12T01:36:29.994Z,17.00
2018-02-12T01:38:58.359Z,16.10
2018-02-12T01:41:26.656Z,17.70
2018-02-12T01:43:55.461Z,16.67
2018-02-12T01:46:23.855Z,16.23
2018-02-12T01:48:52.254Z,15.73
2018-02-12T01:51:20.603Z,15.93
2018-02-12T01:53:48.979Z,15.25
2018-02-12T01:56:17.259Z,15.35
2018-02-12T01:58:45.556Z,16.02
2018-02-12T02:01:13.918Z,16.15
2018-02-12T02:03:42.259Z,16.25
2018-02-12T02:06:12.195Z,17.15
2018-02-12T02:08:40.277Z,17.25
2018-02-12T02:11:08.397Z,16.25
2018-02-12T02:13:36.615Z,15.90
2018-02-12T02:16:04.959Z,16.45
2018-02-12T02:18:33.465Z,15.80
2018-02-12T02:21:01.647Z,15.55
2018-02-12T02:23:31.080Z,15.90
2018-02-12T02:25:59.474Z,14.95
2018-02-12T02:28:27.938Z,15.90
2018-02-12T02:30:56.138Z,18.58
2018-02-12T02:33:24.458Z,17.02
2018-02-12T02:35:52.858Z,17.00
2018-02-12T02:38:21.138Z,17.45
2018-02-12T02:40:49.455Z,16.30
2018-02-12T02:43:17.863Z,17.20
2018-02-12T02:45:46.476Z,16.23
2018-02-12T02:48:14.859Z,17.20
2018-02-12T02:50:43.096Z,15.75
2018-02-12T02:53:11.424Z,15.63
2018-02-12T02:55:39.700Z,16.83
2018-02-12T02:58:07.920Z,17.90
2018-02-12T03:00:36.355Z,18.25
2018-02-12T03:03:04.754Z,15.70
2018-02-12T03:05:32.836Z,16.23
2018-02-12T03:08:01.136Z,17.00
2018-02-12T03:10:29.280Z,16.50
2018-02-12T03:12:57.715Z,17.20
2018-02-12T03:15:25.938Z,16.10
2018-02-12T03:17:54.297Z,16.50
2018-02-12T03:20:22.518Z,15.82
2018-02-12T03:22:50.815Z,15.00
2018-02-12T03:25:18.937Z,17.55
2018-02-12T03:27:47.498Z,18.25
2018-02-12T03:30:15.700Z,16.05
2018-02-12T03:32:43.819Z,18.10
2018-02-12T03:35:11.999Z,15.85
2018-02-12T03:37:41.197Z,16.48
2018-02-12T03:40:09.300Z,14.75
2018-02-12T03:42:37.483Z,16.70
2018-02-12T03:45:06.619Z,15.65
2018-02-12T03:47:35.116Z,14.98
2018-02-12T03:50:03.475Z,17.65
2018-02-12T03:52:31.818Z,17.87
2018-02-12T03:55:00.275Z,16.50
2018-02-12T03:57:28.594Z,15.50
2018-02-12T03:59:56.809Z,17.85
2018-02-12T04:02:25.096Z,16.30
2018-02-12T04:04:53.397Z,16.80
2018-02-12T04:07:21.623Z,18.08
2018-02-12T04:09:49.984Z,18.37
2018-02-12T04:12:18.072Z,15.13
2018-02-12T04:14:46.584Z,16.83
2018-02-12T04:17:14.879Z,15.95
2018-02-12T04:19:43.279Z,16.48
2018-02-12T04:22:11.565Z,15.65
2018-02-12T04:24:39.759Z,15.80
2018-02-12T04:27:08.019Z,16.37
2018-02-12T04:29:36.436Z,18.65
2018-02-12T04:32:04.686Z,17.35
2018-02-12T04:34:33.056Z,17.67
2018-02-12T04:37:01.456Z,17.80
2018-02-12T04:39:29.736Z,18.67
2018-02-12T04:41:57.836Z,18.98
2018-02-12T04:44:25.960Z,18.30
2018-02-12T04:46:54.366Z,19.25
2018-02-12T04:49:22.723Z,20.50
2018-02-12T04:51:50.819Z,21.35
2018-02-12T04:54:19.041Z,20.65
2018-02-12T04:56:47.018Z,21.20
2018-02-12T04:59:15.307Z,18.95
2018-02-12T05:01:43.496Z,18.23
2018-02-12T05:04:11.627Z,19.67
2018-02-12T05:06:39.894Z,19.17
2018-02-12T05:09:08.181Z,19.00
2018-02-12T05:11:36.442Z,19.62
2018-02-12T05:14:04.895Z,19.80
2018-02-12T05:16:33.294Z,18.65
2018-02-12T05:19:01.568Z,19.27
2018-02-12T05:21:29.598Z,18.40
2018-02-12T05:23:58.740Z,18.17
2018-02-12T05:26:27.698Z,18.25
2018-02-12T05:28:55.878Z,18.90
2018-02-12T05:31:24.196Z,20.58
2018-02-12T05:33:52.460Z,20.50
2018-02-12T05:36:20.557Z,20.20
2018-02-12T05:38:48.877Z,18.77
2018-02-12T05:41:17.056Z,22.33
2018-02-12T05:43:45.366Z,20.55
2018-02-12T05:46:13.457Z,19.60
2018-02-12T05:48:41.834Z,21.90
2018-02-12T05:51:09.994Z,21.33
2018-02-12T05:53:38.840Z,21.25
2018-02-12T05:56:07.159Z,21.08
2018-02-12T05:58:35.534Z,21.50
2018-02-12T06:01:03.816Z,21.65
2018-02-12T06:03:32.147Z,22.42
2018-02-12T06:06:00.240Z,20.92
2018-02-12T06:08:29.179Z,20.80
2018-02-12T06:10:57.450Z,21.45
2018-02-12T06:13:25.720Z,21.92
2018-02-12T06:15:53.936Z,19.95
2018-02-12T06:18:22.648Z,21.52
2018-02-12T06:20:50.823Z,21.02
2018-02-12T06:23:18.922Z,21.85
2018-02-12T06:25:47.749Z,23.33
2018-02-12T06:28:15.766Z,22.48
2018-02-12T06:30:44.260Z,22.40
2018-02-12T06:33:12.581Z,23.17
2018-02-12T06:35:40.875Z,21.27
2018-02-12T06:38:09.319Z,25.17
2018-02-12T06:40:37.716Z,26.37
2018-02-12T06:43:05.918Z,23.87
2018-02-12T06:45:34.199Z,23.98
2018-02-12T06:48:02.296Z,22.13
2018-02-12T06:50:30.467Z,23.02
2018-02-12T06:52:58.558Z,22.48
2018-02-12T06:55:27.089Z,20.77
2018-02-12T06:57:55.466Z,21.35
2018-02-12T07:00:23.887Z,18.50
2018-02-12T07:02:52.076Z,19.55
2018-02-12T07:05:20.508Z,21.60
2018-02-12T07:07:48.988Z,19.50
2018-02-12T07:10:17.274Z,19.73
2018-02-12T07:12:45.679Z,19.02
2018-02-12T07:15:13.982Z,18.80
2018-02-12T07:17:42.513Z,19.15
2018-02-12T07:20:10.695Z,21.42
2018-02-12T07:22:38.974Z,21.92
2018-02-12T07:25:07.259Z,20.60
2018-02-12T07:27:35.516Z,19.45
2018-02-12T07:30:03.755Z,22.02
2018-02-12T07:32:31.776Z,20.58
2018-02-12T07:35:00.236Z,20.55
2018-02-12T07:37:28.334Z,20.73
2018-02-12T07:39:56.834Z,23.05
2018-02-12T07:42:25.118Z,25.77
2018-02-12T07:44:53.267Z,24.55
2018-02-12T07:47:21.380Z,23.98
2018-02-12T07:49:49.527Z,23.67
2018-02-12T07:52:17.798Z,20.85
2018-02-12T07:54:46.099Z,19.98
2018-02-12T07:57:14.406Z,19.23
2018-02-12T07:59:42.663Z,19.48
2018-02-12T08:02:10.989Z,19.00
2018-02-12T08:04:39.417Z,20.15
2018-02-12T08:07:07.718Z,18.20
2018-02-12T08:09:36.077Z,20.90
2018-02-12T08:12:04.193Z,19.17
2018-02-12T08:14:32.340Z,25.30
2018-02-12T08:17:00.531Z,22.33
2018-02-12T08:19:28.704Z,19.27
2018-02-12T08:21:56.802Z,21.02
2018-02-12T08:24:25.040Z,22.58
2018-02-12T08:26:53.562Z,24.08
2018-02-12T08:29:21.628Z,24.10
2018-02-12T08:31:50.454Z,22.50
2018-02-12T08:34:18.626Z,21.08
2018-02-12T08:36:47.042Z,21.25
2018-02-12T08:39:16.861Z,19.20
2018-02-12T08:41:45.258Z,16.85
2018-02-12T08:44:13.479Z,19.77
2018-02-12T08:46:41.858Z,19.62
2018-02-12T08:49:10.238Z,18.08
2018-02-12T08:51:38.457Z,20.45
2018-02-12T08:54:06.597Z,20.65
2018-02-12T08:56:34.991Z,18.60
2018-02-12T08:59:03.256Z,22.67
2018-02-12T09:01:31.544Z,19.65
2018-02-12T09:04:00.690Z,18.77
2018-02-12T09:06:29.254Z,20.25
2018-02-12T09:08:57.376Z,19.35
2018-02-12T09:11:25.654Z,19.02
2018-02-12T09:13:54.053Z,21.15
2018-02-12T09:16:22.217Z,19.30
2018-02-12T09:18:50.738Z,21.58
2018-02-12T09:21:19.047Z,17.65
2018-02-12T09:23:47.440Z,16.23
2018-02-12T09:26:15.680Z,17.48
2018-02-12T09:28:43.821Z,17.60
2018-02-12T09:31:12.119Z,16.90
2018-02-12T09:33:40.928Z,16.50
2018-02-12T09:36:09.056Z,16.40
2018-02-12T09:38:37.215Z,17.67
2018-02-12T09:41:05.714Z,16.27
2018-02-12T09:43:33.919Z,19.75
2018-02-12T09:46:02.303Z,17.23
2018-02-12T09:48:30.414Z,18.37
2018-02-12T09:50:58.702Z,16.02
2018-02-12T09:53:26.900Z,17.30
2018-02-12T09:55:55.319Z,16.23
2018-02-12T09:58:23.570Z,18.40
2018-02-12T10:00:51.897Z,18.10
2018-02-12T10:03:20.075Z,19.77
2018-02-12T10:05:48.278Z,18.50
2018-02-12T10:08:16.214Z,19.62
2018-02-12T10:10:44.523Z,18.00
2018-02-12T10:13:14.050Z,18.65
2018-02-12T10:15:42.399Z,23.98
2018-02-12T10:18:10.580Z,22.25
2018-02-12T10:20:38.788Z,18.65
2018-02-12T10:23:06.958Z,17.67
2018-02-12T10:25:35.377Z,17.52
2018-02-12T10:28:03.566Z,17.25
2018-02-12T10:30:31.757Z,15.65
2018-02-12T10:32:59.841Z,18.73
2018-02-12T10:35:28.069Z,17.42
2018-02-12T10:37:56.451Z,17.80
2018-02-12T10:40:24.743Z,17.83
2018-02-12T10:42:53.063Z,18.75
2018-02-12T10:45:21.546Z,17.50
2018-02-12T10:47:49.821Z,17.65
2018-02-12T10:50:18.124Z,16.70
2018-02-12T10:52:46.422Z,16.75
2018-02-12T10:55:14.711Z,17.67
2018-02-12T10:57:42.816Z,20.67
2018-02-12T11:00:12.236Z,18.23
2018-02-12T11:02:40.328Z,19.02
2018-02-12T11:05:08.526Z,17.45
2018-02-12T11:07:36.723Z,19.25
2018-02-12T11:10:04.813Z,18.30
2018-02-12T11:12:33.199Z,19.10
2018-02-12T11:15:01.501Z,18.95
2018-02-12T11:17:29.700Z,20.15
2018-02-12T11:19:57.798Z,21.23
2018-02-12T11:22:25.978Z,18.45
2018-02-12T11:24:54.076Z,20.60
2018-02-12T11:27:22.398Z,19.90
2018-02-12T11:29:50.462Z,17.30
2018-02-12T11:32:18.758Z,19.55
2018-02-12T11:34:47.068Z,18.80
2018-02-12T11:37:15.266Z,16.77
2018-02-12T11:39:43.459Z,19.42
2018-02-12T11:42:11.640Z,17.83
2018-02-12T11:44:39.742Z,17.50
2018-02-12T11:47:07.820Z,19.08
2018-02-12T11:49:36.126Z,18.40
2018-02-12T11:52:04.326Z,19.05
2018-02-12T11:54:32.405Z,18.30
2018-02-12T11:57:00.593Z,19.02
2018-02-12T11:59:28.896Z,17.30
2018-02-12T12:01:57.095Z,16.35
2018-02-12T12:04:25.287Z,19.15
2018-02-12T12:06:53.581Z,19.30
2018-02-12T12:09:21.877Z,19.73
2018-02-12T12:11:50.998Z,19.90
2018-02-12T12:14:19.196Z,18.00
2018-02-12T12:16:47.389Z,17.83
2018-02-12T12:19:15.592Z,18.98
2018-02-12T12:21:43.797Z,19.33
2018-02-12T12:24:12.897Z,18.55
2018-02-12T12:26:41.149Z,21.60
2018-02-12T12:29:09.389Z,19.92
2018-02-12T12:31:37.687Z,17.83
2018-02-12T12:34:05.759Z,19.65
2018-02-12T12:36:34.064Z,18.10
2018-02-12T12:39:02.184Z,18.48
2018-02-12T12:41:30.493Z,17.95
2018-02-12T12:43:58.750Z,18.50
2018-02-12T12:46:26.947Z,17.08
2018-02-12T12:48:54.961Z,19.45
2018-02-12T12:51:23.085Z,18.87
2018-02-12T12:53:51.229Z,17.65
2018-02-12T12:56:19.523Z,18.67
2018-02-12T12:58:47.704Z,19.73
2018-02-12T13:01:16.054Z,18.33
2018-02-12T13:03:44.197Z,18.83
2018-02-12T13:06:12.434Z,16.67
2018-02-12T13:08:40.685Z,16.87
2018-02-12T13:11:08.896Z,16.42
2018-02-12T13:13:37.081Z,16.55
2018-02-12T13:16:06.192Z,17.02
2018-02-12T13:18:34.392Z,16.92
2018-02-12T13:21:02.576Z,17.12
2018-02-12T13:23:30.788Z,16.85
2018-02-12T13:25:59.069Z,17.52
2018-02-12T13:28:27.280Z,16.10
2018-02-12T13:30:55.199Z,18.00
2018-02-12T13:33:23.459Z,15.20
2018-02-12T13:35:51.661Z,19.37
2018-02-12T13:38:19.839Z,17.33
2018-02-12T13:40:48.047Z,18.75
2018-02-12T13:43:16.237Z,18.17
2018-02-12T13:45:44.316Z,18.67
2018-02-12T13:48:12.514Z,16.70
2018-02-12T13:50:40.720Z,18.33
2018-02-12T13:53:08.906Z,17.80
2018-02-12T13:55:37.010Z,16.17
2018-02-12T13:58:05.185Z,15.25
2018-02-12T14:00:33.297Z,13.95
2018-02-12T14:03:01.475Z,13.30
2018-02-12T14:05:29.787Z,13.00
2018-02-12T14:07:58.072Z,12.93
2018-02-12T14:10:26.263Z,12.88
2018-02-12T14:12:54.420Z,13.73
2018-02-12T14:15:22.660Z,13.45
2018-02-12T14:17:50.756Z,15.40
2018-02-12T14:20:18.969Z,13.62
2018-02-12T14:22:47.135Z,14.68
2018-02-12T14:25:15.538Z,15.25
2018-02-12T14:27:43.735Z,17.12
2018-02-12T14:30:11.836Z,16.42
2018-02-12T14:32:39.955Z,14.23
2018-02-12T14:35:08.423Z,16.23
2018-02-12T14:37:36.603Z,17.02
2018-02-12T14:40:05.105Z,21.15
2018-02-12T14:42:33.315Z,17.45
2018-02-12T14:45:01.616Z,17.30
2018-02-12T14:47:29.936Z,16.30
2018-02-12T14:49:58.196Z,15.05
2018-02-12T14:52:27.018Z,16.30
2018-02-12T14:54:55.197Z,17.30
2018-02-12T14:57:23.161Z,18.25
2018-02-12T14:59:51.278Z,16.40
2018-02-12T15:02:19.480Z,16.55
2018-02-12T15:04:47.673Z,15.13
2018-02-12T15:07:15.973Z,14.30
2018-02-12T15:09:44.277Z,15.25
2018-02-12T15:12:12.758Z,14.73
2018-02-12T15:14:40.955Z,17.12
2018-02-12T15:17:09.155Z,18.90
2018-02-12T15:19:37.335Z,20.30
2018-02-12T15:22:05.653Z,19.95
2018-02-12T15:24:33.732Z,17.58
2018-02-12T15:27:01.934Z,16.90
2018-02-12T15:29:30.033Z,15.93
2018-02-12T15:31:58.296Z,13.65
2018-02-12T15:34:26.614Z,15.00
2018-02-12T15:36:54.713Z,15.10
2018-02-12T15:39:22.865Z,16.60
2018-02-12T15:41:51.026Z,14.90
2018-02-12T15:44:19.505Z,14.20
2018-02-12T15:46:47.565Z,14.63
2018-02-12T15:49:15.779Z,15.05
2018-02-12T15:51:43.779Z,15.82
2018-02-12T15:54:11.974Z,13.93
2018-02-12T15:56:40.065Z,13.27
2018-02-12T15:59:08.365Z,12.45
2018-02-12T16:01:36.682Z,11.27
2018-02-12T16:04:05.059Z,11.07
2018-02-12T16:06:33.152Z,9.68
2018-02-12T16:09:01.248Z,9.02
2018-02-12T16:11:29.328Z,10.50
2018-02-12T16:13:57.429Z,9.35
2018-02-12T16:16:25.508Z,12.60
2018-02-12T16:18:53.719Z,12.88
2018-02-12T16:21:21.909Z,10.70
2018-02-12T16:23:49.998Z,9.85
2018-02-12T16:26:18.103Z,8.65
2018-02-12T16:28:46.291Z,7.37
2018-02-12T16:31:14.496Z,11.50
2018-02-12T16:33:42.765Z,15.38
2018-02-12T16:36:10.956Z,21.05
2018-02-12T16:38:39.318Z,21.30
2018-02-12T16:41:07.764Z,16.40
2018-02-12T16:43:35.959Z,10.88
2018-02-12T16:46:04.158Z,8.93
2018-02-12T16:48:32.547Z,8.60
2018-02-12T16:51:00.734Z,6.93
2018-02-12T16:53:29.041Z,6.62
2018-02-12T16:55:57.130Z,5.47
2018-02-12T16:58:25.429Z,4.40
2018-02-12T17:00:54.037Z,4.43
2018-02-12T17:03:22.176Z,5.05
2018-02-12T17:05:50.422Z,3.90
2018-02-12T17:08:18.717Z,4.22
2018-02-12T17:10:46.924Z,2.90
2018-02-12T17:13:15.316Z,3.08
2018-02-12T17:15:43.414Z,3.30
2018-02-12T17:18:11.604Z,2.70
2018-02-12T17:20:40.927Z,2.50
2018-02-12T17:23:09.315Z,2.55
2018-02-12T17:25:37.413Z,3.05
2018-02-12T17:28:05.513Z,4.30
2018-02-12T17:30:33.687Z,4.05
2018-02-12T17:33:02.000Z,3.33
2018-02-12T17:35:30.302Z,2.15
2018-02-12T17:37:58.496Z,2.40
2018-02-12T17:40:26.777Z,1.90
2018-02-12T17:42:54.916Z,2.00
2018-02-12T17:45:22.877Z,2.28
2018-02-12T17:47:51.125Z,1.70
2018-02-12T17:50:19.259Z,1.50
2018-02-12T17:52:47.275Z,1.83
2018-02-12T17:55:15.706Z,1.55
2018-02-12T17:57:43.867Z,2.53
2018-02-12T18:00:12.139Z,1.98
2018-02-12T18:02:40.331Z,2.70
2018-02-12T18:05:08.516Z,28.38
2018-02-12T18:07:36.824Z,8.38
2018-02-12T18:10:05.489Z,4.85
2018-02-12T18:12:33.688Z,14.07
2018-02-12T18:15:01.811Z,11.38
2018-02-12T18:17:29.930Z,9.18
2018-02-12T18:19:59.211Z,7.72
2018-02-12T18:22:27.510Z,4.35
2018-02-12T18:24:55.710Z,1.77
2018-02-12T18:27:23.910Z,2.45
2018-02-12T18:29:51.990Z,2.15
2018-02-12T18:32:20.190Z,1.92
2018-02-12T18:34:48.390Z,1.92
2018-02-12T18:37:16.590Z,3.17
2018-02-12T18:39:44.670Z,2.10
2018-02-12T18:42:12.870Z,2.00
2018-02-12T18:44:41.071Z,2.58
2018-02-12T18:47:09.250Z,19.27
2018-02-12T18:49:37.491Z,52.13
2018-02-12T18:52:05.748Z,57.67
2018-02-12T18:54:33.888Z,68.37
2018-02-12T18:57:02.035Z,53.40
2018-02-12T18:59:30.223Z,51.20
2018-02-12T19:01:58.445Z,45.58
2018-02-12T19:04:26.521Z,27.55
2018-02-12T19:06:54.689Z,28.73
2018-02-12T19:09:22.919Z,24.27
2018-02-12T19:11:51.095Z,19.48
2018-02-12T19:14:19.196Z,17.27
2018-02-12T19:16:47.396Z,19.85
2018-02-12T19:19:15.483Z,17.62
2018-02-12T19:21:43.681Z,19.77
2018-02-12T19:24:12.016Z,19.08
2018-02-12T19:26:40.183Z,19.77
2018-02-12T19:29:08.316Z,19.45
2018-02-12T19:31:36.555Z,18.02
2018-02-12T19:34:04.794Z,16.33
2018-02-12T19:36:33.048Z,12.68
2018-02-12T19:39:01.232Z,21.25
2018-02-12T19:41:29.408Z,19.67
2018-02-12T19:43:57.410Z,17.40
2018-02-12T19:46:25.608Z,11.95
2018-02-12T19:48:53.908Z,13.20
2018-02-12T19:51:21.930Z,11.52
2018-02-12T19:53:49.987Z,9.70
2018-02-12T19:56:18.188Z,7.57
2018-02-12T19:58:46.291Z,6.70
2018-02-12T20:01:14.576Z,8.00
2018-02-12T20:03:42.578Z,8.35
2018-02-12T20:06:10.872Z,6.87
2018-02-12T20:08:40.073Z,9.95
2018-02-12T20:11:08.449Z,8.98
2018-02-12T20:13:36.681Z,11.25
2018-02-12T20:16:04.890Z,15.82
2018-02-12T20:18:32.998Z,14.20
2018-02-12T20:21:01.079Z,13.50
2018-02-12T20:23:29.239Z,10.38
2018-02-12T20:25:57.447Z,10.55
2018-02-12T20:28:25.585Z,11.90
2018-02-12T20:30:53.826Z,10.88
2018-02-12T20:33:21.985Z,11.65
2018-02-12T20:35:50.073Z,12.07
2018-02-12T20:38:18.244Z,13.13
2018-02-12T20:40:46.505Z,12.30
2018-02-12T20:43:14.612Z,10.63
2018-02-12T20:45:42.931Z,11.23
2018-02-12T20:48:11.230Z,11.20
2018-02-12T20:50:39.390Z,10.25
2018-02-12T20:53:07.410Z,10.77
2018-02-12T20:55:35.531Z,9.95
2018-02-12T20:58:03.801Z,10.70
2018-02-12T21:00:32.411Z,10.02
2018-02-12T21:03:00.737Z,9.15
2018-02-12T21:05:29.055Z,10.02
2018-02-12T21:07:58.267Z,9.43
2018-02-12T21:10:26.370Z,7.62
2018-02-12T21:12:55.409Z,8.82
2018-02-12T21:15:23.642Z,9.77
2018-02-12T21:17:51.775Z,10.80
2018-02-12T21:20:19.973Z,9.80
2018-02-12T21:22:48.052Z,9.48
2018-02-12T21:25:16.143Z,9.93
2018-02-12T21:27:44.343Z,10.93
2018-02-12T21:30:12.639Z,10.85
2018-02-12T21:32:40.732Z,10.75
2018-02-12T21:35:08.990Z,10.82
2018-02-12T21:37:37.121Z,9.88
2018-02-12T21:40:05.230Z,10.75
2018-02-12T21:42:33.301Z,12.65
2018-02-12T21:45:01.701Z,9.65
2018-02-12T21:47:29.996Z,18.50
2018-02-12T21:49:58.100Z,25.17
2018-02-12T21:52:26.320Z,17.05
2018-02-12T21:54:54.780Z,11.05
2018-02-12T21:57:22.859Z,10.45
2018-02-12T21:59:51.181Z,9.50
2018-02-12T22:02:19.280Z,9.30
2018-02-12T22:04:47.390Z,10.13
2018-02-12T22:07:15.753Z,13.38
2018-02-12T22:09:43.954Z,13.07
2018-02-12T22:12:12.074Z,13.00
2018-02-12T22:14:40.254Z,14.75
2018-02-12T22:17:09.561Z,14.18
2018-02-12T22:19:37.760Z,14.85
2018-02-12T22:22:06.983Z,16.23
2018-02-12T22:24:35.061Z,15.38
2018-02-12T22:27:03.362Z,14.73
2018-02-12T22:29:31.461Z,13.05
2018-02-12T22:31:59.861Z,14.32
2018-02-12T22:34:28.101Z,13.50
2018-02-12T22:36:56.103Z,8.63
2018-02-12T22:39:24.334Z,8.20
2018-02-12T22:41:52.319Z,8.55
2018-02-12T22:44:20.843Z,10.57
2018-02-12T22:46:48.942Z,9.63
2018-02-12T22:49:17.327Z,9.77
2018-02-12T22:51:45.826Z,8.43
2018-02-12T22:54:14.160Z,9.40
2018-02-12T22:56:42.305Z,10.70
2018-02-12T22:59:10.436Z,9.55
2018-02-12T23:01:38.605Z,10.20
2018-02-12T23:04:06.797Z,10.13
2018-02-12T23:06:34.995Z,10.38
2018-02-12T23:09:03.308Z,10.30
2018-02-12T23:11:31.475Z,10.25
2018-02-12T23:13:59.683Z,9.50
2018-02-12T23:16:27.899Z,9.20
2018-02-12T23:18:55.957Z,13.30
2018-02-12T23:21:24.248Z,17.67
2018-02-12T23:23:52.454Z,16.60
2018-02-12T23:26:20.838Z,10.80
2018-02-12T23:28:49.237Z,7.80
2018-02-12T23:31:17.576Z,7.80
2018-02-12T23:33:45.937Z,10.55
2018-02-12T23:36:14.238Z,13.07
2018-02-12T23:38:42.995Z,12.25
2018-02-12T23:41:11.339Z,13.95
2018-02-12T23:43:39.636Z,11.65
2018-02-12T23:46:07.835Z,11.48
2018-02-12T23:48:35.922Z,10.57
2018-02-12T23:51:04.018Z,12.00
2018-02-12T23:53:32.202Z,14.40
2018-02-12T23:56:00.395Z,12.25
2018-02-12T23:58:28.360Z,18.20
